Time;durP1;ratioP1;P1;durP2;ratioP2;P2;SDS_P1;SDS_P2;PMS_P1;PMS_P2;Temp;Humidity;BMP_temperature;BMP_pressure;BME280_temperature;BME280_humidity;BME280_pressure;Samples;Min_cycle;Max_cycle;Signal;HPM_P1;HPM_P2
2023/08/13 00:01:01;;;;;;;6.77;3.13;;;18.20;99.90;;;;;;5082543;28;20177;-64
2023/08/13 00:03:27;;;;;;;5.00;3.10;;;18.20;99.90;;;;;;5075086;28;20693;-64
2023/08/13 00:05:52;;;;;;;4.40;3.07;;;18.10;99.90;;;;;;5072523;28;20450;-64
2023/08/13 00:08:18;;;;;;;5.50;3.30;;;18.10;99.90;;;;;;5080640;28;20177;-64
2023/08/13 00:10:44;;;;;;;5.30;3.20;;;18.00;99.90;;;;;;5088004;28;20191;-64
2023/08/13 00:13:10;;;;;;;3.50;2.60;;;18.00;99.90;;;;;;5071303;28;20208;-64
2023/08/13 00:15:36;;;;;;;3.47;2.73;;;18.00;99.90;;;;;;5074831;28;20184;-64
2023/08/13 00:18:02;;;;;;;5.10;2.27;;;18.00;99.90;;;;;;5088860;28;20412;-64
2023/08/13 00:20:27;;;;;;;5.33;2.63;;;18.00;99.90;;;;;;5072216;28;20173;-64
2023/08/13 00:22:54;;;;;;;4.90;2.33;;;18.00;99.90;;;;;;5079792;28;20189;-64
2023/08/13 00:25:21;;;;;;;10.50;2.90;;;17.90;99.90;;;;;;5083708;28;20665;-64
2023/08/13 00:27:46;;;;;;;5.27;2.10;;;17.90;99.90;;;;;;5081259;28;20429;-64
2023/08/13 00:30:12;;;;;;;4.70;2.57;;;17.80;99.90;;;;;;5082519;28;20419;-64
2023/08/13 00:32:37;;;;;;;4.33;2.20;;;17.80;99.90;;;;;;5071781;28;20544;-64
2023/08/13 00:35:03;;;;;;;6.77;3.37;;;17.90;99.90;;;;;;5076471;28;20189;-64
2023/08/13 00:37:29;;;;;;;4.50;2.63;;;17.80;99.90;;;;;;5088783;28;20187;-64
2023/08/13 00:39:55;;;;;;;3.90;2.63;;;17.90;99.90;;;;;;5092683;28;20181;-64
2023/08/13 00:42:20;;;;;;;4.10;2.37;;;17.80;99.90;;;;;;5088752;28;20185;-64
2023/08/13 00:44:46;;;;;;;8.03;2.47;;;17.80;99.90;;;;;;5080241;28;20215;-64
2023/08/13 00:47:11;;;;;;;4.70;2.50;;;17.80;99.90;;;;;;5079993;28;20189;-64
2023/08/13 00:49:37;;;;;;;5.70;2.70;;;17.70;99.90;;;;;;5080276;28;20246;-64
2023/08/13 00:52:03;;;;;;;3.60;2.60;;;17.70;99.90;;;;;;5074826;28;20624;-64
2023/08/13 00:54:30;;;;;;;4.30;2.57;;;17.70;99.90;;;;;;5079486;28;20208;-64
2023/08/13 00:56:56;;;;;;;3.30;2.00;;;17.60;99.90;;;;;;5078195;28;20627;-65
2023/08/13 00:59:22;;;;;;;3.70;2.30;;;17.60;99.90;;;;;;5084218;28;20423;-64
2023/08/13 01:01:48;;;;;;;4.17;2.60;;;17.60;99.90;;;;;;5062180;28;20181;-64
2023/08/13 01:04:13;;;;;;;4.73;3.00;;;17.60;99.90;;;;;;5084438;28;20771;-64
2023/08/13 01:06:55;;;;;;;4.70;2.60;;;17.50;99.90;;;;;;5088689;28;20184;-64
2023/08/13 01:09:30;;;;;;;6.33;2.87;;;17.50;99.90;;;;;;5077389;28;20611;-64
2023/08/13 01:12:14;;;;;;;4.43;2.60;;;17.50;99.90;;;;;;5085476;28;20467;-64
2023/08/13 01:15:12;;;;;;;2.20;1.53;;;17.50;99.90;;;;;;5081410;28;20454;-64
2023/08/13 01:17:39;;;;;;;5.33;2.37;;;17.50;99.90;;;;;;5087487;28;20765;-64
2023/08/13 01:20:08;;;;;;;2.83;2.10;;;17.50;99.90;;;;;;5077819;28;20436;-64
2023/08/13 01:22:38;;;;;;;3.77;2.13;;;17.50;99.90;;;;;;5077658;28;20502;-64
2023/08/13 01:25:07;;;;;;;2.70;1.90;;;17.40;99.90;;;;;;5071217;28;20447;-64
2023/08/13 01:27:45;;;;;;;4.40;2.30;;;17.40;99.90;;;;;;5071958;28;20416;-64
2023/08/13 01:30:20;;;;;;;3.13;1.73;;;17.40;99.90;;;;;;5091489;28;20571;-64
2023/08/13 01:33:02;;;;;;;6.63;3.23;;;17.30;99.90;;;;;;5073810;28;20460;-64
2023/08/13 01:35:30;;;;;;;3.00;2.10;;;17.30;99.90;;;;;;5075981;28;20455;-64
2023/08/13 01:37:58;;;;;;;3.50;2.40;;;17.30;99.90;;;;;;5084708;28;20434;-64
2023/08/13 01:40:23;;;;;;;3.00;1.90;;;17.30;99.90;;;;;;5071106;28;20412;-64
2023/08/13 01:42:49;;;;;;;3.47;1.93;;;17.30;99.90;;;;;;5070446;28;20830;-64
2023/08/13 01:45:14;;;;;;;3.40;2.27;;;17.30;99.90;;;;;;5082081;28;20180;-64
2023/08/13 01:47:40;;;;;;;3.20;2.20;;;17.30;99.90;;;;;;5076666;28;20230;-64
2023/08/13 01:50:06;;;;;;;3.33;2.17;;;17.30;99.90;;;;;;5078465;28;20609;-64
2023/08/13 01:52:32;;;;;;;4.10;2.40;;;17.30;99.90;;;;;;5076351;28;20180;-65
2023/08/13 01:54:58;;;;;;;3.43;1.70;;;17.30;99.90;;;;;;5090451;28;20414;-64
2023/08/13 01:57:23;;;;;;;4.70;2.40;;;17.40;99.90;;;;;;5079955;28;20177;-64
2023/08/13 01:59:49;;;;;;;5.60;2.47;;;17.40;99.90;;;;;;5083174;28;20418;-64
2023/08/13 02:02:15;;;;;;;3.07;2.03;;;17.40;99.90;;;;;;5071816;28;20185;-64
2023/08/13 02:04:41;;;;;;;3.10;1.87;;;17.30;99.90;;;;;;5070240;28;20200;-64
2023/08/13 02:07:06;;;;;;;3.40;2.20;;;17.40;99.90;;;;;;5072002;28;20268;-64
2023/08/13 02:09:32;;;;;;;2.87;1.97;;;17.30;99.90;;;;;;5081584;28;20185;-64
2023/08/13 02:11:57;;;;;;;5.07;2.10;;;17.30;99.90;;;;;;5072185;28;20185;-64
2023/08/13 02:14:24;;;;;;;3.47;1.50;;;17.40;99.90;;;;;;5078628;28;20580;-64
2023/08/13 02:16:50;;;;;;;4.10;2.57;;;17.40;99.90;;;;;;5079771;28;20638;-64
2023/08/13 02:19:15;;;;;;;5.00;2.60;;;17.50;99.90;;;;;;5074898;28;20486;-64
2023/08/13 02:21:41;;;;;;;11.33;2.50;;;17.50;99.90;;;;;;5094719;28;20208;-64
2023/08/13 02:24:07;;;;;;;4.30;2.87;;;17.50;99.90;;;;;;5094554;28;20257;-65
2023/08/13 02:26:32;;;;;;;4.70;3.37;;;17.50;99.90;;;;;;5088466;28;20639;-64
2023/08/13 02:28:58;;;;;;;3.60;2.40;;;17.60;99.90;;;;;;5087573;28;20184;-64
2023/08/13 02:31:23;;;;;;;4.70;2.93;;;17.60;99.90;;;;;;5080891;28;20191;-64
2023/08/13 02:33:49;;;;;;;6.10;3.17;;;17.60;99.90;;;;;;5085194;28;20280;-64
2023/08/13 02:36:15;;;;;;;4.87;2.80;;;17.70;99.90;;;;;;5080929;28;20221;-64
2023/08/13 02:38:40;;;;;;;5.87;2.83;;;17.70;99.90;;;;;;5081856;28;20186;-64
2023/08/13 02:41:06;;;;;;;10.10;3.70;;;17.70;99.90;;;;;;5080177;28;20653;-64
2023/08/13 02:43:52;;;;;;;9.23;3.57;;;17.70;99.90;;;;;;5081280;28;20231;-64
2023/08/13 02:46:18;;;;;;;5.07;3.03;;;17.80;99.90;;;;;;5082649;28;20180;-64
2023/08/13 02:48:45;;;;;;;7.27;3.50;;;17.80;99.90;;;;;;5092415;28;20418;-64
2023/08/13 02:51:11;;;;;;;6.07;3.63;;;17.80;99.90;;;;;;5073927;28;20415;-65
2023/08/13 02:53:37;;;;;;;6.37;3.67;;;17.90;99.90;;;;;;5073447;28;20502;-65
2023/08/13 02:56:03;;;;;;;5.53;3.60;;;17.90;99.90;;;;;;5083111;28;20462;-64
2023/08/13 02:58:28;;;;;;;5.77;2.90;;;17.90;99.90;;;;;;5074002;28;20196;-65
2023/08/13 03:00:54;;;;;;;3.40;2.40;;;17.80;99.90;;;;;;5074143;28;20272;-64
2023/08/13 03:03:19;;;;;;;6.20;3.47;;;17.80;99.90;;;;;;5073590;28;20188;-64
2023/08/13 03:05:45;;;;;;;4.30;2.80;;;17.80;99.90;;;;;;5073737;28;20196;-64
2023/08/13 03:08:10;;;;;;;6.03;3.57;;;17.80;99.90;;;;;;5082224;28;20212;-64
2023/08/13 03:10:36;;;;;;;4.60;3.10;;;17.80;99.90;;;;;;5089151;28;20226;-64
2023/08/13 03:13:01;;;;;;;7.37;3.47;;;17.80;99.90;;;;;;5073824;28;20197;-64
2023/08/13 03:15:27;;;;;;;7.03;3.40;;;17.90;99.90;;;;;;5075329;28;20205;-64
2023/08/13 03:17:53;;;;;;;4.97;3.23;;;17.80;99.90;;;;;;5091916;28;20646;-64
2023/08/13 03:20:19;;;;;;;11.50;4.20;;;17.80;99.90;;;;;;5085461;28;20290;-64
2023/08/13 03:22:44;;;;;;;6.40;3.20;;;17.90;99.90;;;;;;5088354;28;20176;-64
2023/08/13 03:25:10;;;;;;;8.07;3.30;;;17.80;99.90;;;;;;5084811;28;20177;-64
2023/08/13 03:27:36;;;;;;;6.97;4.40;;;17.80;99.90;;;;;;5074087;28;20181;-64
2023/08/13 03:30:01;;;;;;;6.60;3.40;;;17.80;99.90;;;;;;5093579;28;20187;-64
2023/08/13 03:32:28;;;;;;;7.93;4.03;;;17.80;99.90;;;;;;5078749;28;20173;-64
2023/08/13 03:34:53;;;;;;;11.17;3.00;;;17.80;99.90;;;;;;5077902;28;20201;-64
2023/08/13 03:37:19;;;;;;;6.10;3.00;;;17.80;99.90;;;;;;5073855;28;20450;-64
2023/08/13 03:39:44;;;;;;;5.57;3.80;;;17.90;99.90;;;;;;5085821;28;20247;-64
2023/08/13 03:42:10;;;;;;;9.53;3.97;;;17.90;99.90;;;;;;5086183;28;20211;-64
2023/08/13 03:44:36;;;;;;;5.20;3.50;;;18.00;99.90;;;;;;5072715;28;20192;-64
2023/08/13 03:47:01;;;;;;;6.47;4.03;;;18.00;99.90;;;;;;5086451;28;20192;-64
2023/08/13 03:49:27;;;;;;;4.83;2.60;;;18.00;99.90;;;;;;5073405;28;20195;-64
2023/08/13 03:51:52;;;;;;;7.57;3.40;;;18.00;99.90;;;;;;5072136;28;20561;-64
2023/08/13 03:54:18;;;;;;;5.57;3.60;;;18.00;99.90;;;;;;5072969;28;20267;-64
2023/08/13 03:56:43;;;;;;;6.43;3.70;;;18.10;99.90;;;;;;5073309;28;20189;-64
2023/08/13 03:59:09;;;;;;;11.43;4.03;;;18.10;99.90;;;;;;5086046;28;20181;-64
2023/08/13 04:01:35;;;;;;;3.50;2.60;;;18.10;99.90;;;;;;5073135;28;20173;-64
2023/08/13 04:04:01;;;;;;;4.87;2.60;;;18.10;99.90;;;;;;5092721;28;20188;-64
2023/08/13 04:06:26;;;;;;;11.40;2.97;;;18.10;99.90;;;;;;5078587;28;20260;-64
2023/08/13 04:08:52;;;;;;;5.30;3.17;;;18.10;99.90;;;;;;5079365;28;20425;-64
2023/08/13 04:11:19;;;;;;;5.80;2.77;;;18.10;99.90;;;;;;5079584;28;20220;-64
2023/08/13 04:13:44;;;;;;;5.37;3.43;;;18.10;99.90;;;;;;5072010;28;20300;-65
2023/08/13 04:16:10;;;;;;;5.10;3.00;;;18.10;99.90;;;;;;5103747;23;21071;-64
2023/08/13 04:18:35;;;;;;;5.63;3.20;;;18.10;99.90;;;;;;5092931;28;20180;-64
2023/08/13 04:21:01;;;;;;;6.93;4.30;;;18.10;99.90;;;;;;5078681;28;20185;-65
2023/08/13 04:23:26;;;;;;;6.67;4.00;;;18.10;99.90;;;;;;5092177;28;20180;-64
2023/08/13 04:25:52;;;;;;;8.97;3.93;;;18.10;99.90;;;;;;5092694;28;20275;-64
2023/08/13 04:28:18;;;;;;;3.90;2.53;;;18.10;99.90;;;;;;5092145;28;20642;-64
2023/08/13 04:30:43;;;;;;;9.20;3.80;;;18.00;99.90;;;;;;5092532;28;20184;-64
2023/08/13 04:33:09;;;;;;;6.57;3.27;;;18.10;99.90;;;;;;5091957;28;20200;-64
2023/08/13 04:35:34;;;;;;;5.80;3.43;;;18.10;99.90;;;;;;5092241;28;20255;-64
2023/08/13 04:38:00;;;;;;;5.37;3.50;;;18.10;99.90;;;;;;5091639;28;20225;-64
2023/08/13 04:40:26;;;;;;;5.37;3.63;;;18.10;99.90;;;;;;5092515;28;20334;-64
2023/08/13 04:42:51;;;;;;;4.67;2.60;;;18.10;99.90;;;;;;5091856;28;21052;-64
2023/08/13 04:45:17;;;;;;;4.87;2.97;;;18.10;99.90;;;;;;5090770;28;20180;-64
2023/08/13 04:47:43;;;;;;;4.93;3.13;;;18.10;99.90;;;;;;5092504;28;20180;-64
2023/08/13 04:50:09;;;;;;;6.83;3.27;;;18.10;99.90;;;;;;5092460;28;20187;-65
2023/08/13 04:52:35;;;;;;;4.60;2.80;;;18.10;99.90;;;;;;5090949;28;20309;-65
2023/08/13 04:55:01;;;;;;;7.70;4.07;;;18.10;99.90;;;;;;5091364;28;20509;-64
2023/08/13 04:57:27;;;;;;;5.97;3.87;;;18.00;99.90;;;;;;5091320;28;20810;-64
2023/08/13 04:59:52;;;;;;;6.97;4.30;;;18.00;99.90;;;;;;5091995;28;20180;-64
2023/08/13 05:02:18;;;;;;;7.40;4.53;;;18.00;99.90;;;;;;5091837;28;20263;-64
2023/08/13 05:04:44;;;;;;;9.60;3.90;;;18.00;99.90;;;;;;5091686;28;20214;-64
2023/08/13 05:07:09;;;;;;;6.93;3.83;;;18.00;99.90;;;;;;5091380;28;20172;-64
2023/08/13 05:09:35;;;;;;;7.70;3.67;;;18.00;99.90;;;;;;5091926;28;20752;-64
2023/08/13 05:12:01;;;;;;;6.10;3.80;;;18.00;99.90;;;;;;5090916;28;20222;-64
2023/08/13 05:14:26;;;;;;;9.23;4.47;;;18.00;99.90;;;;;;5083611;28;20207;-64
2023/08/13 05:16:54;;;;;;;5.77;4.10;;;18.00;99.90;;;;;;5091427;28;20195;-64
2023/08/13 05:19:20;;;;;;;6.33;4.27;;;18.00;99.90;;;;;;5091526;28;20576;-64
2023/08/13 05:21:46;;;;;;;7.90;4.70;;;18.10;99.90;;;;;;5091242;28;20505;-64
2023/08/13 05:24:11;;;;;;;7.43;3.80;;;18.10;99.90;;;;;;5090659;28;20180;-64
2023/08/13 05:26:37;;;;;;;8.70;4.70;;;18.10;99.90;;;;;;5087289;28;20225;-64
2023/08/13 05:29:03;;;;;;;8.33;4.67;;;18.20;99.90;;;;;;5084733;28;20206;-64
2023/08/13 05:31:30;;;;;;;16.83;5.67;;;18.20;99.90;;;;;;5091545;28;20556;-64
2023/08/13 05:33:57;;;;;;;11.03;5.33;;;18.20;99.90;;;;;;5064078;28;20204;-64
2023/08/13 05:36:24;;;;;;;7.70;4.33;;;18.20;99.90;;;;;;5083619;28;20901;-64
2023/08/13 05:38:49;;;;;;;9.40;5.10;;;18.20;99.90;;;;;;5085108;28;20414;-64
2023/08/13 05:41:15;;;;;;;11.80;5.47;;;18.20;99.90;;;;;;5091289;28;20417;-65
2023/08/13 05:43:41;;;;;;;11.83;5.40;;;18.20;99.90;;;;;;5075857;28;20196;-64
2023/08/13 05:46:07;;;;;;;6.40;3.90;;;18.20;99.90;;;;;;5078162;28;20683;-64
2023/08/13 05:48:32;;;;;;;10.80;5.37;;;18.30;99.90;;;;;;5077203;28;20227;-64
2023/08/13 05:50:58;;;;;;;7.60;4.90;;;18.30;99.90;;;;;;5083650;28;20665;-64
2023/08/13 05:53:23;;;;;;;9.23;5.10;;;18.30;99.90;;;;;;5083640;28;20200;-64
2023/08/13 05:55:50;;;;;;;6.63;4.40;;;18.20;99.90;;;;;;5078256;28;20184;-63
2023/08/13 05:58:16;;;;;;;9.53;6.00;;;18.20;99.90;;;;;;5073335;28;20531;-63
2023/08/13 06:00:42;;;;;;;8.27;5.03;;;18.20;99.90;;;;;;5083555;28;20461;-63
2023/08/13 06:03:08;;;;;;;8.60;4.90;;;18.20;99.90;;;;;;5070850;28;20185;-64
2023/08/13 06:05:34;;;;;;;8.20;4.43;;;18.30;99.90;;;;;;5090985;28;20184;-64
2023/08/13 06:08:00;;;;;;;9.57;5.33;;;18.30;99.90;;;;;;5085026;28;20199;-64
2023/08/13 06:10:25;;;;;;;8.50;4.37;;;18.40;99.90;;;;;;5078802;28;20423;-63
2023/08/13 06:12:51;;;;;;;7.13;4.20;;;18.40;99.90;;;;;;5073845;28;20189;-64
2023/08/13 06:15:17;;;;;;;10.07;5.30;;;18.40;99.90;;;;;;5069922;28;20592;-64
2023/08/13 06:17:42;;;;;;;6.73;3.13;;;18.40;99.90;;;;;;5084210;28;20233;-64
2023/08/13 06:20:10;;;;;;;8.57;5.07;;;18.40;99.90;;;;;;5090829;28;20500;-64
2023/08/13 06:22:36;;;;;;;7.53;5.37;;;18.50;99.90;;;;;;5076611;28;20189;-64
2023/08/13 06:25:02;;;;;;;8.87;5.27;;;18.50;99.90;;;;;;5082915;28;20427;-64
2023/08/13 06:27:27;;;;;;;8.40;4.70;;;18.50;99.90;;;;;;5070130;28;20522;-64
2023/08/13 06:29:53;;;;;;;8.27;5.37;;;18.60;99.90;;;;;;5090808;28;20196;-64
2023/08/13 06:32:19;;;;;;;7.90;4.90;;;18.60;99.90;;;;;;5077148;28;20201;-64
2023/08/13 06:34:45;;;;;;;9.63;5.47;;;18.60;99.90;;;;;;5073850;28;20209;-64
2023/08/13 06:37:10;;;;;;;8.47;4.87;;;18.70;99.90;;;;;;5081652;28;20183;-64
2023/08/13 06:39:36;;;;;;;9.40;5.60;;;18.70;99.90;;;;;;5072299;28;20719;-64
2023/08/13 06:42:01;;;;;;;10.43;5.43;;;18.70;99.90;;;;;;5084245;28;20192;-64
2023/08/13 06:44:27;;;;;;;10.43;4.73;;;18.80;99.90;;;;;;5077503;28;20185;-64
2023/08/13 06:46:53;;;;;;;10.00;5.13;;;18.80;99.90;;;;;;5077736;28;20189;-64
2023/08/13 06:49:18;;;;;;;7.87;4.80;;;18.90;99.90;;;;;;5074006;28;20196;-64
2023/08/13 06:51:44;;;;;;;8.13;5.07;;;18.90;99.90;;;;;;5079470;28;20185;-64
2023/08/13 06:54:10;;;;;;;8.67;4.60;;;18.90;99.90;;;;;;5081304;28;20283;-64
2023/08/13 06:56:36;;;;;;;7.13;4.10;;;18.80;99.90;;;;;;5076964;28;20587;-64
2023/08/13 06:59:03;;;;;;;8.23;3.73;;;18.80;99.90;;;;;;5069727;28;20190;-64
2023/08/13 07:01:29;;;;;;;5.20;2.87;;;18.70;99.90;;;;;;5073959;28;20472;-64
2023/08/13 07:03:56;;;;;;;5.23;3.03;;;18.70;99.90;;;;;;5080051;28;20454;-64
2023/08/13 07:06:22;;;;;;;4.57;2.87;;;18.60;99.90;;;;;;5080439;28;20449;-64
2023/08/13 07:08:47;;;;;;;5.57;3.13;;;18.70;99.90;;;;;;5082675;28;20428;-64
2023/08/13 07:11:13;;;;;;;5.80;3.60;;;18.60;99.90;;;;;;5083607;28;20687;-64
2023/08/13 07:13:38;;;;;;;4.70;2.70;;;18.60;99.90;;;;;;5077004;28;20213;-64
2023/08/13 07:16:04;;;;;;;8.03;3.23;;;18.70;99.90;;;;;;5073613;28;20678;-64
2023/08/13 07:18:30;;;;;;;5.27;3.23;;;18.70;99.90;;;;;;5084235;28;20211;-64
2023/08/13 07:20:55;;;;;;;5.27;3.27;;;18.80;99.90;;;;;;5079813;28;20709;-64
2023/08/13 07:23:21;;;;;;;4.20;3.03;;;18.80;99.90;;;;;;5072715;28;20635;-64
2023/08/13 07:25:46;;;;;;;5.07;2.87;;;18.80;99.90;;;;;;5073461;28;20188;-64
2023/08/13 07:28:12;;;;;;;7.77;3.30;;;18.70;99.90;;;;;;5072885;28;20196;-64
2023/08/13 07:30:38;;;;;;;5.60;2.50;;;18.60;99.90;;;;;;5073594;28;20270;-64
2023/08/13 07:33:04;;;;;;;4.73;3.30;;;18.60;99.90;;;;;;5079419;28;20651;-64
2023/08/13 07:35:30;;;;;;;3.50;2.07;;;18.70;99.90;;;;;;5074964;28;20187;-64
2023/08/13 07:37:56;;;;;;;2.97;2.10;;;18.70;99.90;;;;;;5086479;28;20446;-64
2023/08/13 07:40:22;;;;;;;7.37;2.10;;;18.80;99.90;;;;;;5086245;28;20914;-64
2023/08/13 07:42:47;;;;;;;4.43;2.60;;;18.90;99.90;;;;;;5061093;28;20267;-64
2023/08/13 07:45:13;;;;;;;4.40;2.90;;;18.90;99.90;;;;;;5092968;28;20642;-64
2023/08/13 07:47:39;;;;;;;3.43;1.73;;;18.90;99.90;;;;;;5073161;28;20303;-64
2023/08/13 07:50:05;;;;;;;2.40;1.63;;;18.90;99.90;;;;;;5086426;28;20184;-64
2023/08/13 07:52:31;;;;;;;4.90;2.07;;;19.00;99.90;;;;;;5086322;28;20242;-64
2023/08/13 07:54:57;;;;;;;5.17;2.27;;;19.00;99.90;;;;;;5072759;28;20463;-64
2023/08/13 07:57:23;;;;;;;4.23;2.47;;;19.10;99.90;;;;;;5082191;28;20871;-64
2023/08/13 07:59:49;;;;;;;2.50;1.83;;;19.30;99.90;;;;;;5086812;28;20291;-64
2023/08/13 08:02:15;;;;;;;5.20;2.80;;;19.40;99.90;;;;;;5079744;28;20176;-65
2023/08/13 08:04:40;;;;;;;5.90;2.70;;;19.50;99.90;;;;;;5092691;28;20500;-64
2023/08/13 08:07:06;;;;;;;4.33;2.37;;;19.50;99.90;;;;;;5075977;28;20194;-64
2023/08/13 08:09:31;;;;;;;4.37;2.97;;;19.60;99.90;;;;;;5084530;28;20221;-64
2023/08/13 08:11:57;;;;;;;5.13;2.30;;;19.50;99.90;;;;;;5075968;28;20226;-64
2023/08/13 08:14:23;;;;;;;6.03;3.07;;;19.60;99.90;;;;;;5072094;28;20913;-64
2023/08/13 08:16:50;;;;;;;3.70;2.50;;;19.80;99.90;;;;;;5076312;28;20204;-64
2023/08/13 08:19:16;;;;;;;5.90;3.47;;;20.00;99.90;;;;;;5086070;28;20184;-64
2023/08/13 08:21:42;;;;;;;4.73;2.83;;;20.30;99.90;;;;;;5085757;28;20419;-65
2023/08/13 08:24:07;;;;;;;5.57;2.83;;;20.40;99.90;;;;;;5085495;28;20198;-65
2023/08/13 08:26:33;;;;;;;4.57;3.20;;;20.40;99.90;;;;;;5075395;28;20216;-65
2023/08/13 08:28:59;;;;;;;3.97;2.20;;;20.30;99.90;;;;;;5071958;28;20219;-65
2023/08/13 08:31:25;;;;;;;5.27;2.90;;;20.30;99.90;;;;;;5072323;28;20193;-65
2023/08/13 08:33:51;;;;;;;4.40;2.90;;;20.40;99.90;;;;;;5079864;28;20466;-65
2023/08/13 08:36:16;;;;;;;6.27;2.37;;;20.30;99.90;;;;;;5085803;28;20805;-64
2023/08/13 08:38:42;;;;;;;3.50;2.23;;;20.40;99.90;;;;;;5071789;28;20638;-64
2023/08/13 08:41:09;;;;;;;6.63;3.17;;;20.30;99.90;;;;;;5072019;28;20629;-65
2023/08/13 08:43:38;;;;;;;6.30;3.63;;;20.40;99.90;;;;;;5071353;28;20195;-65
2023/08/13 08:46:06;;;;;;;5.90;3.10;;;20.40;99.90;;;;;;5072304;28;20423;-65
2023/08/13 08:48:33;;;;;;;6.00;3.23;;;20.40;99.90;;;;;;5072010;28;20955;-65
2023/08/13 08:50:59;;;;;;;4.77;2.80;;;20.50;99.90;;;;;;5078962;28;20434;-65
2023/08/13 08:53:25;;;;;;;3.63;2.27;;;20.40;99.90;;;;;;5077001;28;20576;-65
2023/08/13 08:55:52;;;;;;;5.30;2.70;;;20.40;99.90;;;;;;5084300;28;20188;-65
2023/08/13 08:58:17;;;;;;;6.30;3.47;;;20.50;99.90;;;;;;5083831;28;21170;-65
2023/08/13 09:00:43;;;;;;;3.80;2.30;;;20.60;99.90;;;;;;5071090;28;20426;-65
2023/08/13 09:03:09;;;;;;;4.50;2.43;;;20.70;99.90;;;;;;5084032;28;20192;-65
2023/08/13 09:05:36;;;;;;;4.07;2.60;;;20.80;99.90;;;;;;5084073;28;20259;-65
2023/08/13 09:08:13;;;;;;;4.47;2.43;;;20.80;99.90;;;;;;5075612;28;20418;-65
2023/08/13 09:10:43;;;;;;;4.27;2.97;;;20.80;99.90;;;;;;5074843;28;21056;-65
2023/08/13 09:13:09;;;;;;;3.80;2.27;;;21.20;99.90;;;;;;5082686;28;20495;-65
2023/08/13 09:15:41;;;;;;;3.13;2.20;;;21.90;99.90;;;;;;5084324;28;20776;-65
2023/08/13 09:18:07;;;;;;;5.03;1.67;;;22.30;99.90;;;;;;5074397;28;20496;-65
2023/08/13 09:20:32;;;;;;;4.13;2.00;;;22.50;99.90;;;;;;5080547;28;20499;-65
2023/08/13 09:22:59;;;;;;;4.10;2.20;;;22.60;99.90;;;;;;5073564;28;21139;-65
2023/08/13 09:25:25;;;;;;;3.67;1.90;;;22.60;99.90;;;;;;5090633;28;20187;-65
2023/08/13 09:27:52;;;;;;;7.03;2.33;;;22.80;99.90;;;;;;5073152;28;20443;-65
2023/08/13 09:30:28;;;;;;;12.77;2.10;;;23.10;99.90;;;;;;5070908;28;20414;-65
2023/08/13 09:32:56;;;;;;;5.30;1.97;;;23.80;99.90;;;;;;5084099;28;20419;-65
2023/08/13 09:35:22;;;;;;;6.73;2.00;;;24.60;99.90;;;;;;5075532;28;20180;-65
2023/08/13 09:37:47;;;;;;;5.25;1.98;;;24.50;99.90;;;;;;5070693;28;20191;-66
2023/08/13 09:40:13;;;;;;;4.07;1.83;;;24.80;99.90;;;;;;5071098;28;20184;-65
2023/08/13 09:42:42;;;;;;;2.83;1.42;;;25.20;99.90;;;;;;5070264;28;20234;-66
2023/08/13 09:45:10;;;;;;;6.70;2.55;;;25.50;99.90;;;;;;5070524;28;20173;-66
2023/08/13 09:47:36;;;;;;;3.38;1.92;;;25.70;99.90;;;;;;5076017;28;20179;-66
2023/08/13 09:50:03;;;;;;;4.28;1.90;;;26.00;99.90;;;;;;5078300;28;20180;-66
2023/08/13 09:52:31;;;;;;;4.32;1.67;;;26.60;99.90;;;;;;5071201;28;20275;-66
2023/08/13 09:55:09;;;;;;;4.15;2.22;;;27.00;99.90;;;;;;5071143;28;20227;-66
2023/08/13 09:57:38;;;;;;;4.18;2.05;;;27.10;99.90;;;;;;5078630;28;20207;-66
2023/08/13 10:00:04;;;;;;;3.55;2.03;;;27.30;99.90;;;;;;5076601;28;20239;-66
2023/08/13 10:02:31;;;;;;;4.25;2.42;;;27.10;99.90;;;;;;5070988;28;20187;-65
2023/08/13 10:04:57;;;;;;;3.92;2.05;;;27.30;99.90;;;;;;5070839;28;20185;-65
2023/08/13 10:07:24;;;;;;;5.35;2.50;;;27.10;99.90;;;;;;5073602;28;20169;-65
2023/08/13 10:09:50;;;;;;;5.18;2.83;;;27.00;99.90;;;;;;5081173;28;20219;-65
2023/08/13 10:12:17;;;;;;;5.95;2.45;;;27.20;99.90;;;;;;5070783;28;20231;-65
2023/08/13 10:14:42;;;;;;;3.10;1.98;;;26.70;99.90;;;;;;5076741;28;20238;-65
2023/08/13 10:17:08;;;;;;;3.22;2.00;;;26.60;99.90;;;;;;5078702;28;20251;-65
2023/08/13 10:19:37;;;;;;;4.70;2.38;;;26.20;99.90;;;;;;5084912;28;20180;-65
2023/08/13 10:22:03;;;;;;;9.82;2.88;;;26.20;99.90;;;;;;5071039;28;20701;-65
2023/08/13 10:24:30;;;;;;;6.03;2.00;;;26.20;99.90;;;;;;5070661;28;20191;-65
2023/08/13 10:26:59;;;;;;;6.05;2.35;;;25.90;99.90;;;;;;5071055;28;20177;-65
2023/08/13 10:29:40;;;;;;;10.07;2.67;;;25.90;99.90;;;;;;5084602;28;20184;-65
2023/08/13 10:32:14;;;;;;;5.13;2.30;;;25.50;99.90;;;;;;5070706;28;20187;-65
2023/08/13 10:34:53;;;;;;;6.67;2.53;;;25.60;99.90;;;;;;5076201;28;20590;-65
2023/08/13 10:37:20;;;;;;;3.25;2.00;;;25.80;99.90;;;;;;5074405;28;20267;-65
2023/08/13 10:39:47;;;;;;;3.13;1.70;;;26.10;99.90;;;;;;5074699;28;20642;-65
2023/08/13 10:42:46;;;;;;;5.33;2.40;;;26.10;99.90;;;;;;5074073;28;20189;-65
2023/08/13 10:45:15;;;;;;;4.07;2.10;;;26.10;99.90;;;;;;5074071;28;20195;-65
2023/08/13 10:47:48;;;;;;;6.87;2.70;;;26.00;99.90;;;;;;5084549;28;20176;-65
2023/08/13 10:50:34;;;;;;;4.70;2.60;;;25.70;99.90;;;;;;5074418;28;20188;-65
2023/08/13 10:53:07;;;;;;;5.10;2.60;;;25.60;99.90;;;;;;5074389;28;20189;-65
2023/08/13 10:55:41;;;;;;;5.10;2.23;;;25.80;99.90;;;;;;5074481;28;20181;-65
2023/08/13 10:58:20;;;;;;;3.50;2.60;;;25.90;99.90;;;;;;5086577;28;20258;-65
2023/08/13 11:00:46;;;;;;;4.40;2.40;;;26.20;99.90;;;;;;5074000;28;20176;-65
2023/08/13 11:03:22;;;;;;;4.00;2.33;;;26.50;99.90;;;;;;5073594;28;20242;-65
2023/08/13 11:05:50;;;;;;;6.22;2.33;;;26.70;99.90;;;;;;5074321;28;20207;-65
2023/08/13 11:08:23;;;;;;;6.05;2.28;;;26.70;99.90;;;;;;5079200;28;20210;-65
2023/08/13 11:10:50;;;;;;;6.20;2.35;;;26.70;99.90;;;;;;5082315;28;20199;-65
2023/08/13 11:13:17;;;;;;;4.97;2.22;;;26.50;99.90;;;;;;5073244;28;20205;-65
2023/08/13 11:15:54;;;;;;;4.03;2.50;;;26.30;99.90;;;;;;5078282;28;20291;-65
2023/08/13 11:18:20;;;;;;;4.10;1.90;;;26.40;99.90;;;;;;5074117;28;20180;-65
2023/08/13 11:20:47;;;;;;;3.92;2.22;;;26.20;99.90;;;;;;5083837;28;20187;-65
2023/08/13 11:23:14;;;;;;;4.57;2.40;;;26.30;99.90;;;;;;5077890;28;20501;-65
2023/08/13 11:25:40;;;;;;;4.93;2.03;;;26.30;99.90;;;;;;5086119;28;20202;-64
2023/08/13 11:28:06;;;;;;;3.15;1.80;;;26.50;99.90;;;;;;5079944;28;20224;-65
2023/08/13 11:30:32;;;;;;;2.75;1.75;;;26.60;99.90;;;;;;5081295;28;20268;-65
2023/08/13 11:32:57;;;;;;;2.63;1.50;;;26.80;99.90;;;;;;5073525;28;20193;-65
2023/08/13 11:35:23;;;;;;;4.07;2.03;;;26.80;99.90;;;;;;5077868;28;20187;-65
2023/08/13 11:37:49;;;;;;;3.63;2.03;;;27.00;99.90;;;;;;5073210;28;20208;-64
2023/08/13 11:40:16;;;;;;;3.28;2.25;;;26.90;99.90;;;;;;5073491;28;20179;-64
2023/08/13 11:42:52;;;;;;;3.80;1.90;;;27.00;99.90;;;;;;5073032;28;20179;-65
2023/08/13 11:45:18;;;;;;;3.67;2.08;;;26.70;99.90;;;;;;5072823;28;20188;-65
2023/08/13 11:47:43;;;;;;;5.47;2.67;;;26.60;99.90;;;;;;5081126;28;20207;-65
2023/08/13 11:50:21;;;;;;;4.70;2.13;;;26.50;99.90;;;;;;5061462;28;20188;-65
2023/08/13 11:53:12;;;;;;;5.15;2.03;;;26.60;99.90;;;;;;5073005;28;20260;-65
2023/08/13 11:55:40;;;;;;;3.25;1.80;;;26.60;99.90;;;;;;5073579;28;20189;-65
2023/08/13 11:58:05;;;;;;;8.93;2.00;;;26.60;99.90;;;;;;5086198;28;20180;-64
2023/08/13 12:00:32;;;;;;;4.90;1.93;;;26.70;99.90;;;;;;5073936;28;20652;-64
2023/08/13 12:02:59;;;;;;;6.40;2.15;;;26.60;99.90;;;;;;5073128;28;20528;-64
2023/08/13 12:05:29;;;;;;;6.47;2.27;;;26.60;99.90;;;;;;5072870;28;20185;-65
2023/08/13 12:08:04;;;;;;;4.00;1.70;;;26.40;99.90;;;;;;5081129;28;20191;-64
2023/08/13 12:10:31;;;;;;;4.80;1.67;;;26.20;99.90;;;;;;5087457;28;20187;-65
2023/08/13 12:12:57;;;;;;;3.90;1.90;;;26.10;99.90;;;;;;5073544;28;20180;-64
2023/08/13 12:15:24;;;;;;;3.73;1.43;;;26.10;99.90;;;;;;5084079;28;20196;-64
2023/08/13 12:17:55;;;;;;;4.30;2.20;;;26.20;99.90;;;;;;5075353;28;20453;-64
2023/08/13 12:20:21;;;;;;;6.03;1.60;;;26.40;99.90;;;;;;5083554;28;20179;-65
2023/08/13 12:22:47;;;;;;;2.93;1.50;;;26.40;99.90;;;;;;5087432;28;20176;-64
2023/08/13 12:25:12;;;;;;;5.50;1.80;;;26.70;99.90;;;;;;5082766;28;20834;-64
2023/08/13 12:27:38;;;;;;;3.30;1.63;;;26.60;99.90;;;;;;5074549;28;20184;-64
2023/08/13 12:30:04;;;;;;;4.67;1.50;;;26.60;99.90;;;;;;5073361;28;20271;-64
2023/08/13 12:32:30;;;;;;;3.92;2.08;;;26.80;99.90;;;;;;5071396;28;20267;-64
2023/08/13 12:34:56;;;;;;;8.00;1.90;;;27.10;99.90;;;;;;5084947;28;20208;-65
2023/08/13 12:37:22;;;;;;;3.03;1.60;;;27.30;99.90;;;;;;5089643;28;20188;-65
2023/08/13 12:39:48;;;;;;;2.45;1.30;;;27.10;99.90;;;;;;5071888;28;20662;-64
2023/08/13 12:42:13;;;;;;;2.40;1.60;;;27.20;99.90;;;;;;5084864;28;20180;-64
2023/08/13 12:44:39;;;;;;;2.00;1.27;;;26.90;99.90;;;;;;5079720;28;20286;-64